sensor_id;sensor_type;location;lat;lon;timestamp;P1;durP1;ratioP1;P2;durP2;ratioP2
15526;SDS011;7865;50.918;4.510;2023-03-01T00:03:50;10.83;;;6.33;;
15526;SDS011;7865;50.918;4.510;2023-03-01T00:08:53;11.37;;;6.57;;
15526;SDS011;7865;50.918;4.510;2023-03-01T00:13:56;18.27;;;7.87;;
15526;SDS011;7865;50.918;4.510;2023-03-01T00:18:59;8.73;;;6.30;;
15526;SDS011;7865;50.918;4.510;2023-03-01T00:24:02;11.70;;;6.43;;
15526;SDS011;7865;50.918;4.510;2023-03-01T00:29:04;12.90;;;7.90;;
15526;SDS011;7865;50.918;4.510;2023-03-01T00:34:06;9.20;;;6.13;;
15526;SDS011;7865;50.918;4.510;2023-03-01T00:39:10;10.47;;;6.43;;
15526;SDS011;7865;50.918;4.510;2023-03-01T00:44:14;13.90;;;7.57;;
15526;SDS011;7865;50.918;4.510;2023-03-01T00:49:16;13.03;;;9.10;;
15526;SDS011;7865;50.918;4.510;2023-03-01T00:54:18;9.63;;;6.33;;
15526;SDS011;7865;50.918;4.510;2023-03-01T00:59:21;11.40;;;7.00;;
15526;SDS011;7865;50.918;4.510;2023-03-01T01:04:23;13.93;;;7.57;;
15526;SDS011;7865;50.918;4.510;2023-03-01T01:09:25;9.13;;;6.47;;
15526;SDS011;7865;50.918;4.510;2023-03-01T01:14:27;11.20;;;7.30;;
15526;SDS011;7865;50.918;4.510;2023-03-01T01:19:29;11.37;;;5.50;;
15526;SDS011;7865;50.918;4.510;2023-03-01T01:24:31;11.47;;;6.77;;
15526;SDS011;7865;50.918;4.510;2023-03-01T01:29:33;10.40;;;6.60;;
15526;SDS011;7865;50.918;4.510;2023-03-01T01:34:35;12.97;;;6.43;;
15526;SDS011;7865;50.918;4.510;2023-03-01T01:39:37;11.13;;;7.40;;
15526;SDS011;7865;50.918;4.510;2023-03-01T01:44:39;11.40;;;6.80;;
15526;SDS011;7865;50.918;4.510;2023-03-01T01:49:46;12.87;;;7.37;;
15526;SDS011;7865;50.918;4.510;2023-03-01T01:59:56;9.10;;;5.63;;
15526;SDS011;7865;50.918;4.510;2023-03-01T02:05:03;10.03;;;5.43;;
15526;SDS011;7865;50.918;4.510;2023-03-01T02:10:13;10.87;;;6.50;;
15526;SDS011;7865;50.918;4.510;2023-03-01T02:15:15;8.33;;;6.20;;
15526;SDS011;7865;50.918;4.510;2023-03-01T02:20:29;17.20;;;6.40;;
15526;SDS011;7865;50.918;4.510;2023-03-01T02:31:02;9.37;;;6.43;;
15526;SDS011;7865;50.918;4.510;2023-03-01T02:36:29;8.90;;;5.57;;
15526;SDS011;7865;50.918;4.510;2023-03-01T02:41:41;10.47;;;6.17;;
15526;SDS011;7865;50.918;4.510;2023-03-01T02:46:48;12.13;;;6.23;;
15526;SDS011;7865;50.918;4.510;2023-03-01T02:57:23;11.63;;;6.07;;
15526;SDS011;7865;50.918;4.510;2023-03-01T03:02:27;9.00;;;6.20;;
15526;SDS011;7865;50.918;4.510;2023-03-01T03:08:03;11.97;;;6.87;;
15526;SDS011;7865;50.918;4.510;2023-03-01T03:13:10;9.77;;;5.83;;
15526;SDS011;7865;50.918;4.510;2023-03-01T03:18:15;14.63;;;6.93;;
15526;SDS011;7865;50.918;4.510;2023-03-01T03:23:18;10.30;;;5.93;;
15526;SDS011;7865;50.918;4.510;2023-03-01T03:28:21;9.73;;;6.17;;
15526;SDS011;7865;50.918;4.510;2023-03-01T03:33:24;10.63;;;6.37;;
15526;SDS011;7865;50.918;4.510;2023-03-01T03:38:26;10.07;;;5.30;;
15526;SDS011;7865;50.918;4.510;2023-03-01T03:43:28;10.37;;;6.03;;
15526;SDS011;7865;50.918;4.510;2023-03-01T03:48:35;12.97;;;7.23;;
15526;SDS011;7865;50.918;4.510;2023-03-01T03:53:40;9.60;;;7.33;;
15526;SDS011;7865;50.918;4.510;2023-03-01T03:58:43;14.03;;;7.67;;
15526;SDS011;7865;50.918;4.510;2023-03-01T04:03:44;13.47;;;6.53;;
15526;SDS011;7865;50.918;4.510;2023-03-01T04:08:49;11.00;;;6.50;;
15526;SDS011;7865;50.918;4.510;2023-03-01T04:13:53;11.37;;;6.67;;
15526;SDS011;7865;50.918;4.510;2023-03-01T04:18:57;9.60;;;6.63;;
15526;SDS011;7865;50.918;4.510;2023-03-01T04:24:01;10.43;;;6.23;;
15526;SDS011;7865;50.918;4.510;2023-03-01T04:29:05;9.17;;;5.40;;
15526;SDS011;7865;50.918;4.510;2023-03-01T04:34:07;11.30;;;6.43;;
15526;SDS011;7865;50.918;4.510;2023-03-01T04:39:09;7.30;;;5.40;;
15526;SDS011;7865;50.918;4.510;2023-03-01T04:44:13;10.83;;;6.23;;
15526;SDS011;7865;50.918;4.510;2023-03-01T04:49:15;9.90;;;6.03;;
15526;SDS011;7865;50.918;4.510;2023-03-01T04:54:17;10.43;;;6.93;;
15526;SDS011;7865;50.918;4.510;2023-03-01T04:59:19;14.13;;;6.63;;
15526;SDS011;7865;50.918;4.510;2023-03-01T05:04:24;10.87;;;6.63;;
15526;SDS011;7865;50.918;4.510;2023-03-01T05:09:26;10.57;;;6.83;;
15526;SDS011;7865;50.918;4.510;2023-03-01T05:14:28;7.60;;;5.80;;
15526;SDS011;7865;50.918;4.510;2023-03-01T05:19:30;9.03;;;5.80;;
15526;SDS011;7865;50.918;4.510;2023-03-01T05:24:33;8.40;;;5.50;;
15526;SDS011;7865;50.918;4.510;2023-03-01T05:29:36;11.20;;;6.87;;
15526;SDS011;7865;50.918;4.510;2023-03-01T05:34:40;11.37;;;5.77;;
15526;SDS011;7865;50.918;4.510;2023-03-01T05:39:42;13.73;;;5.87;;
15526;SDS011;7865;50.918;4.510;2023-03-01T05:44:44;10.00;;;6.47;;
15526;SDS011;7865;50.918;4.510;2023-03-01T05:49:46;8.90;;;6.03;;
15526;SDS011;7865;50.918;4.510;2023-03-01T05:54:48;10.93;;;6.07;;
15526;SDS011;7865;50.918;4.510;2023-03-01T05:59:51;10.27;;;5.97;;
15526;SDS011;7865;50.918;4.510;2023-03-01T06:04:52;11.27;;;6.77;;
15526;SDS011;7865;50.918;4.510;2023-03-01T06:09:54;12.47;;;5.93;;
15526;SDS011;7865;50.918;4.510;2023-03-01T06:14:56;11.20;;;6.90;;
15526;SDS011;7865;50.918;4.510;2023-03-01T06:19:58;7.03;;;5.20;;
15526;SDS011;7865;50.918;4.510;2023-03-01T06:25:00;11.53;;;5.73;;
15526;SDS011;7865;50.918;4.510;2023-03-01T06:30:03;11.47;;;6.77;;
15526;SDS011;7865;50.918;4.510;2023-03-01T06:35:05;12.07;;;5.90;;
15526;SDS011;7865;50.918;4.510;2023-03-01T06:40:08;9.20;;;5.67;;
15526;SDS011;7865;50.918;4.510;2023-03-01T06:45:13;9.63;;;6.40;;
15526;SDS011;7865;50.918;4.510;2023-03-01T06:50:15;13.60;;;6.83;;
15526;SDS011;7865;50.918;4.510;2023-03-01T06:55:18;7.60;;;5.33;;
15526;SDS011;7865;50.918;4.510;2023-03-01T07:00:20;12.33;;;7.03;;
15526;SDS011;7865;50.918;4.510;2023-03-01T07:05:23;13.53;;;6.93;;
15526;SDS011;7865;50.918;4.510;2023-03-01T07:10:24;11.70;;;7.10;;
15526;SDS011;7865;50.918;4.510;2023-03-01T07:15:28;14.50;;;7.63;;
15526;SDS011;7865;50.918;4.510;2023-03-01T07:20:30;17.77;;;9.00;;
15526;SDS011;7865;50.918;4.510;2023-03-01T07:25:32;13.03;;;7.10;;
15526;SDS011;7865;50.918;4.510;2023-03-01T07:30:34;13.13;;;7.93;;
15526;SDS011;7865;50.918;4.510;2023-03-01T07:35:37;20.47;;;7.73;;
15526;SDS011;7865;50.918;4.510;2023-03-01T07:40:39;16.50;;;8.33;;
15526;SDS011;7865;50.918;4.510;2023-03-01T07:45:41;16.63;;;8.87;;
15526;SDS011;7865;50.918;4.510;2023-03-01T07:50:44;15.27;;;9.13;;
15526;SDS011;7865;50.918;4.510;2023-03-01T07:55:46;14.47;;;9.07;;
15526;SDS011;7865;50.918;4.510;2023-03-01T08:00:48;14.00;;;9.00;;
15526;SDS011;7865;50.918;4.510;2023-03-01T08:05:50;12.23;;;7.93;;
15526;SDS011;7865;50.918;4.510;2023-03-01T08:10:52;11.87;;;8.13;;
15526;SDS011;7865;50.918;4.510;2023-03-01T08:15:53;13.63;;;8.20;;
15526;SDS011;7865;50.918;4.510;2023-03-01T08:20:55;14.60;;;9.13;;
15526;SDS011;7865;50.918;4.510;2023-03-01T08:26:15;14.33;;;8.50;;
15526;SDS011;7865;50.918;4.510;2023-03-01T08:31:24;18.23;;;9.60;;
15526;SDS011;7865;50.918;4.510;2023-03-01T08:36:30;16.10;;;9.37;;
15526;SDS011;7865;50.918;4.510;2023-03-01T08:41:34;13.00;;;8.60;;
15526;SDS011;7865;50.918;4.510;2023-03-01T08:46:38;14.23;;;8.30;;
15526;SDS011;7865;50.918;4.510;2023-03-01T08:51:43;13.67;;;8.63;;
15526;SDS011;7865;50.918;4.510;2023-03-01T08:56:46;14.07;;;8.20;;
15526;SDS011;7865;50.918;4.510;2023-03-01T09:01:49;12.63;;;7.93;;
15526;SDS011;7865;50.918;4.510;2023-03-01T09:06:51;11.07;;;7.97;;
15526;SDS011;7865;50.918;4.510;2023-03-01T09:11:53;10.57;;;7.67;;
15526;SDS011;7865;50.918;4.510;2023-03-01T09:16:54;11.17;;;7.80;;
15526;SDS011;7865;50.918;4.510;2023-03-01T09:21:56;10.97;;;8.07;;
15526;SDS011;7865;50.918;4.510;2023-03-01T09:26:59;9.40;;;7.23;;
15526;SDS011;7865;50.918;4.510;2023-03-01T09:32:02;11.43;;;7.87;;
15526;SDS011;7865;50.918;4.510;2023-03-01T09:37:04;14.97;;;8.30;;
15526;SDS011;7865;50.918;4.510;2023-03-01T09:42:10;14.00;;;8.13;;
15526;SDS011;7865;50.918;4.510;2023-03-01T09:47:18;13.70;;;8.00;;
15526;SDS011;7865;50.918;4.510;2023-03-01T09:52:33;15.30;;;8.30;;
15526;SDS011;7865;50.918;4.510;2023-03-01T09:57:47;11.50;;;7.77;;
15526;SDS011;7865;50.918;4.510;2023-03-01T10:03:17;10.47;;;7.23;;
15526;SDS011;7865;50.918;4.510;2023-03-01T10:18:55;11.70;;;8.53;;
15526;SDS011;7865;50.918;4.510;2023-03-01T10:24:12;15.20;;;8.57;;
15526;SDS011;7865;50.918;4.510;2023-03-01T10:29:15;14.50;;;8.67;;
15526;SDS011;7865;50.918;4.510;2023-03-01T10:34:18;11.67;;;7.57;;
15526;SDS011;7865;50.918;4.510;2023-03-01T10:39:23;9.73;;;8.00;;
15526;SDS011;7865;50.918;4.510;2023-03-01T10:44:46;10.73;;;7.90;;
15526;SDS011;7865;50.918;4.510;2023-03-01T10:49:54;10.80;;;7.70;;
15526;SDS011;7865;50.918;4.510;2023-03-01T10:54:58;12.00;;;8.53;;
15526;SDS011;7865;50.918;4.510;2023-03-01T11:05:27;13.83;;;8.43;;
15526;SDS011;7865;50.918;4.510;2023-03-01T11:10:33;9.20;;;7.37;;
15526;SDS011;7865;50.918;4.510;2023-03-01T11:15:36;10.67;;;7.97;;
15526;SDS011;7865;50.918;4.510;2023-03-01T11:20:38;11.33;;;7.90;;
15526;SDS011;7865;50.918;4.510;2023-03-01T11:25:47;10.97;;;7.37;;
15526;SDS011;7865;50.918;4.510;2023-03-01T11:30:55;9.53;;;7.30;;
15526;SDS011;7865;50.918;4.510;2023-03-01T11:41:43;10.90;;;7.63;;
15526;SDS011;7865;50.918;4.510;2023-03-01T12:08:13;9.53;;;7.07;;
15526;SDS011;7865;50.918;4.510;2023-03-01T12:19:09;10.00;;;7.17;;
15526;SDS011;7865;50.918;4.510;2023-03-01T12:50:42;11.33;;;8.23;;
15526;SDS011;7865;50.918;4.510;2023-03-01T12:55:50;11.07;;;8.00;;
15526;SDS011;7865;50.918;4.510;2023-03-01T13:06:35;9.50;;;7.20;;
15526;SDS011;7865;50.918;4.510;2023-03-01T13:11:58;9.73;;;7.20;;
15526;SDS011;7865;50.918;4.510;2023-03-01T13:17:00;9.97;;;7.17;;
15526;SDS011;7865;50.918;4.510;2023-03-01T13:22:25;11.30;;;7.97;;
15526;SDS011;7865;50.918;4.510;2023-03-01T13:27:29;9.70;;;7.23;;
15526;SDS011;7865;50.918;4.510;2023-03-01T13:32:35;10.07;;;6.93;;
15526;SDS011;7865;50.918;4.510;2023-03-01T13:37:45;10.53;;;7.20;;
15526;SDS011;7865;50.918;4.510;2023-03-01T13:42:48;11.13;;;8.03;;
15526;SDS011;7865;50.918;4.510;2023-03-01T13:48:15;9.90;;;8.00;;
15526;SDS011;7865;50.918;4.510;2023-03-01T13:53:23;11.27;;;8.17;;
15526;SDS011;7865;50.918;4.510;2023-03-01T13:58:29;10.83;;;7.77;;
15526;SDS011;7865;50.918;4.510;2023-03-01T14:03:34;11.17;;;8.03;;
15526;SDS011;7865;50.918;4.510;2023-03-01T14:08:43;9.20;;;6.93;;
15526;SDS011;7865;50.918;4.510;2023-03-01T14:19:26;11.17;;;7.77;;
15526;SDS011;7865;50.918;4.510;2023-03-01T14:24:35;9.30;;;7.33;;
15526;SDS011;7865;50.918;4.510;2023-03-01T14:29:41;14.70;;;7.43;;
15526;SDS011;7865;50.918;4.510;2023-03-01T14:34:44;10.97;;;6.90;;
15526;SDS011;7865;50.918;4.510;2023-03-01T14:39:48;11.57;;;6.70;;
15526;SDS011;7865;50.918;4.510;2023-03-01T14:44:51;9.87;;;7.87;;
15526;SDS011;7865;50.918;4.510;2023-03-01T14:49:59;12.13;;;7.40;;
15526;SDS011;7865;50.918;4.510;2023-03-01T14:55:06;10.67;;;7.53;;
15526;SDS011;7865;50.918;4.510;2023-03-01T15:05:30;10.23;;;7.87;;
15526;SDS011;7865;50.918;4.510;2023-03-01T15:10:35;10.83;;;8.20;;
15526;SDS011;7865;50.918;4.510;2023-03-01T15:15:38;10.90;;;8.30;;
15526;SDS011;7865;50.918;4.510;2023-03-01T15:20:44;10.93;;;7.60;;
15526;SDS011;7865;50.918;4.510;2023-03-01T15:25:47;11.20;;;8.13;;
15526;SDS011;7865;50.918;4.510;2023-03-01T15:31:40;12.60;;;8.40;;
15526;SDS011;7865;50.918;4.510;2023-03-01T15:41:46;13.63;;;8.10;;
15526;SDS011;7865;50.918;4.510;2023-03-01T15:46:50;8.70;;;6.70;;
15526;SDS011;7865;50.918;4.510;2023-03-01T15:51:53;11.80;;;7.07;;
15526;SDS011;7865;50.918;4.510;2023-03-01T15:56:56;11.43;;;7.50;;
15526;SDS011;7865;50.918;4.510;2023-03-01T16:01:58;11.80;;;7.63;;
15526;SDS011;7865;50.918;4.510;2023-03-01T16:07:00;11.13;;;7.20;;
15526;SDS011;7865;50.918;4.510;2023-03-01T16:12:02;10.23;;;6.73;;
15526;SDS011;7865;50.918;4.510;2023-03-01T16:17:04;10.50;;;6.33;;
15526;SDS011;7865;50.918;4.510;2023-03-01T16:22:08;11.00;;;6.97;;
15526;SDS011;7865;50.918;4.510;2023-03-01T16:27:11;10.33;;;6.57;;
15526;SDS011;7865;50.918;4.510;2023-03-01T16:32:13;9.93;;;7.17;;
15526;SDS011;7865;50.918;4.510;2023-03-01T16:37:15;8.63;;;6.07;;
15526;SDS011;7865;50.918;4.510;2023-03-01T16:42:18;10.33;;;6.30;;
15526;SDS011;7865;50.918;4.510;2023-03-01T16:47:20;7.90;;;6.37;;
15526;SDS011;7865;50.918;4.510;2023-03-01T16:52:22;8.13;;;5.93;;
15526;SDS011;7865;50.918;4.510;2023-03-01T16:57:24;12.80;;;6.40;;
15526;SDS011;7865;50.918;4.510;2023-03-01T17:02:26;8.43;;;6.47;;
15526;SDS011;7865;50.918;4.510;2023-03-01T17:07:32;9.17;;;5.73;;
15526;SDS011;7865;50.918;4.510;2023-03-01T17:12:36;8.40;;;5.67;;
15526;SDS011;7865;50.918;4.510;2023-03-01T17:17:38;10.57;;;7.03;;
15526;SDS011;7865;50.918;4.510;2023-03-01T17:22:41;11.93;;;7.07;;
15526;SDS011;7865;50.918;4.510;2023-03-01T17:27:43;14.10;;;7.40;;
15526;SDS011;7865;50.918;4.510;2023-03-01T17:32:45;14.27;;;7.37;;
15526;SDS011;7865;50.918;4.510;2023-03-01T17:37:47;13.17;;;7.27;;
15526;SDS011;7865;50.918;4.510;2023-03-01T17:42:49;10.30;;;7.03;;
15526;SDS011;7865;50.918;4.510;2023-03-01T17:47:51;10.27;;;7.77;;
15526;SDS011;7865;50.918;4.510;2023-03-01T17:52:53;14.27;;;7.93;;
15526;SDS011;7865;50.918;4.510;2023-03-01T17:57:56;19.80;;;10.17;;
15526;SDS011;7865;50.918;4.510;2023-03-01T18:02:57;18.53;;;10.50;;
15526;SDS011;7865;50.918;4.510;2023-03-01T18:07:59;15.43;;;9.60;;
15526;SDS011;7865;50.918;4.510;2023-03-01T18:13:02;17.40;;;10.67;;
15526;SDS011;7865;50.918;4.510;2023-03-01T18:18:07;16.03;;;9.07;;
15526;SDS011;7865;50.918;4.510;2023-03-01T18:23:09;14.83;;;8.47;;
15526;SDS011;7865;50.918;4.510;2023-03-01T18:28:11;14.77;;;7.97;;
15526;SDS011;7865;50.918;4.510;2023-03-01T18:33:13;11.87;;;6.97;;
15526;SDS011;7865;50.918;4.510;2023-03-01T18:38:15;13.53;;;7.80;;
15526;SDS011;7865;50.918;4.510;2023-03-01T18:43:17;13.17;;;7.77;;
15526;SDS011;7865;50.918;4.510;2023-03-01T18:48:19;9.57;;;6.47;;
15526;SDS011;7865;50.918;4.510;2023-03-01T18:53:22;9.70;;;6.90;;
15526;SDS011;7865;50.918;4.510;2023-03-01T18:58:24;15.27;;;7.50;;
15526;SDS011;7865;50.918;4.510;2023-03-01T19:03:27;12.13;;;7.13;;
15526;SDS011;7865;50.918;4.510;2023-03-01T19:08:29;14.57;;;8.63;;
15526;SDS011;7865;50.918;4.510;2023-03-01T19:13:33;12.53;;;9.10;;
15526;SDS011;7865;50.918;4.510;2023-03-01T19:18:36;12.93;;;7.83;;
15526;SDS011;7865;50.918;4.510;2023-03-01T19:23:42;12.03;;;7.20;;
15526;SDS011;7865;50.918;4.510;2023-03-01T19:28:44;12.27;;;7.13;;
15526;SDS011;7865;50.918;4.510;2023-03-01T19:33:47;12.80;;;7.83;;
15526;SDS011;7865;50.918;4.510;2023-03-01T19:38:50;14.10;;;8.73;;
15526;SDS011;7865;50.918;4.510;2023-03-01T19:43:52;11.70;;;7.47;;
15526;SDS011;7865;50.918;4.510;2023-03-01T19:48:54;18.73;;;8.23;;
15526;SDS011;7865;50.918;4.510;2023-03-01T19:53:57;14.73;;;8.30;;
15526;SDS011;7865;50.918;4.510;2023-03-01T19:58:59;18.93;;;10.17;;
15526;SDS011;7865;50.918;4.510;2023-03-01T20:04:04;18.13;;;9.30;;
15526;SDS011;7865;50.918;4.510;2023-03-01T20:09:07;18.27;;;9.23;;
15526;SDS011;7865;50.918;4.510;2023-03-01T20:14:22;17.17;;;9.10;;
15526;SDS011;7865;50.918;4.510;2023-03-01T20:19:24;14.87;;;8.37;;
15526;SDS011;7865;50.918;4.510;2023-03-01T20:24:26;17.33;;;9.87;;
15526;SDS011;7865;50.918;4.510;2023-03-01T20:29:28;15.97;;;8.70;;
15526;SDS011;7865;50.918;4.510;2023-03-01T20:34:31;15.80;;;9.63;;
15526;SDS011;7865;50.918;4.510;2023-03-01T20:39:35;15.27;;;9.47;;
15526;SDS011;7865;50.918;4.510;2023-03-01T20:44:37;15.77;;;9.43;;
15526;SDS011;7865;50.918;4.510;2023-03-01T20:49:43;18.73;;;9.90;;
15526;SDS011;7865;50.918;4.510;2023-03-01T20:54:45;19.87;;;10.20;;
15526;SDS011;7865;50.918;4.510;2023-03-01T20:59:47;13.57;;;8.40;;
15526;SDS011;7865;50.918;4.510;2023-03-01T21:04:49;20.67;;;10.20;;
15526;SDS011;7865;50.918;4.510;2023-03-01T21:09:51;17.07;;;10.27;;
15526;SDS011;7865;50.918;4.510;2023-03-01T21:14:53;13.83;;;8.63;;
15526;SDS011;7865;50.918;4.510;2023-03-01T21:19:55;15.53;;;9.00;;
15526;SDS011;7865;50.918;4.510;2023-03-01T21:24:57;15.37;;;8.73;;
15526;SDS011;7865;50.918;4.510;2023-03-01T21:29:59;19.47;;;9.77;;
15526;SDS011;7865;50.918;4.510;2023-03-01T21:35:01;20.03;;;9.23;;
15526;SDS011;7865;50.918;4.510;2023-03-01T21:40:03;20.40;;;10.60;;
15526;SDS011;7865;50.918;4.510;2023-03-01T21:45:09;27.80;;;9.90;;
15526;SDS011;7865;50.918;4.510;2023-03-01T21:50:11;14.50;;;9.20;;
15526;SDS011;7865;50.918;4.510;2023-03-01T21:55:14;18.37;;;10.27;;
15526;SDS011;7865;50.918;4.510;2023-03-01T22:00:16;19.63;;;11.17;;
15526;SDS011;7865;50.918;4.510;2023-03-01T22:05:18;19.87;;;10.17;;
15526;SDS011;7865;50.918;4.510;2023-03-01T22:10:20;22.67;;;11.80;;
15526;SDS011;7865;50.918;4.510;2023-03-01T22:15:28;18.13;;;9.73;;
15526;SDS011;7865;50.918;4.510;2023-03-01T22:20:30;20.33;;;10.50;;
15526;SDS011;7865;50.918;4.510;2023-03-01T22:25:32;23.80;;;12.20;;
15526;SDS011;7865;50.918;4.510;2023-03-01T22:30:37;19.67;;;10.90;;
15526;SDS011;7865;50.918;4.510;2023-03-01T22:35:40;22.03;;;11.10;;
15526;SDS011;7865;50.918;4.510;2023-03-01T22:40:42;23.70;;;11.30;;
15526;SDS011;7865;50.918;4.510;2023-03-01T22:45:44;29.27;;;12.10;;
15526;SDS011;7865;50.918;4.510;2023-03-01T22:50:47;19.73;;;10.73;;
15526;SDS011;7865;50.918;4.510;2023-03-01T22:55:49;20.97;;;10.07;;
15526;SDS011;7865;50.918;4.510;2023-03-01T23:00:51;16.13;;;9.63;;
15526;SDS011;7865;50.918;4.510;2023-03-01T23:05:53;19.77;;;10.80;;
15526;SDS011;7865;50.918;4.510;2023-03-01T23:10:55;21.23;;;10.43;;
15526;SDS011;7865;50.918;4.510;2023-03-01T23:15:57;19.90;;;9.60;;
15526;SDS011;7865;50.918;4.510;2023-03-01T23:20:59;19.40;;;9.93;;
15526;SDS011;7865;50.918;4.510;2023-03-01T23:26:01;24.80;;;11.03;;
15526;SDS011;7865;50.918;4.510;2023-03-01T23:31:04;28.20;;;11.30;;
15526;SDS011;7865;50.918;4.510;2023-03-01T23:36:16;18.93;;;9.50;;
15526;SDS011;7865;50.918;4.510;2023-03-01T23:41:22;13.97;;;8.90;;
15526;SDS011;7865;50.918;4.510;2023-03-01T23:46:27;16.50;;;8.93;;
15526;SDS011;7865;50.918;4.510;2023-03-01T23:51:31;17.73;;;9.47;;
15526;SDS011;7865;50.918;4.510;2023-03-01T23:56:37;19.53;;;9.97;;
